sensor_id;sensor_type;location;lat;lon;timestamp;P1;durP1;ratioP1;P2;durP2;ratioP2
68858;SDS011;55864;49.238;8.092;2022-11-11T00:01:54;5.50;;;2.13;;
68858;SDS011;55864;49.238;8.092;2022-11-11T00:04:15;5.20;;;2.10;;
68858;SDS011;55864;49.238;8.092;2022-11-11T00:06:34;6.70;;;2.13;;
68858;SDS011;55864;49.238;8.092;2022-11-11T00:08:53;7.30;;;2.03;;
68858;SDS011;55864;49.238;8.092;2022-11-11T00:11:12;5.00;;;1.90;;
68858;SDS011;55864;49.238;8.092;2022-11-11T00:13:32;7.43;;;2.00;;
68858;SDS011;55864;49.238;8.092;2022-11-11T00:15:52;6.27;;;1.83;;
68858;SDS011;55864;49.238;8.092;2022-11-11T00:18:11;7.83;;;2.00;;
68858;SDS011;55864;49.238;8.092;2022-11-11T00:20:31;6.57;;;2.20;;
68858;SDS011;55864;49.238;8.092;2022-11-11T00:22:50;4.93;;;1.80;;
68858;SDS011;55864;49.238;8.092;2022-11-11T00:25:10;5.50;;;1.80;;
68858;SDS011;55864;49.238;8.092;2022-11-11T00:27:34;6.13;;;1.83;;
68858;SDS011;55864;49.238;8.092;2022-11-11T00:29:53;6.97;;;2.13;;
68858;SDS011;55864;49.238;8.092;2022-11-11T00:32:12;7.67;;;2.30;;
68858;SDS011;55864;49.238;8.092;2022-11-11T00:34:31;7.80;;;2.40;;
68858;SDS011;55864;49.238;8.092;2022-11-11T00:36:52;6.57;;;2.17;;
68858;SDS011;55864;49.238;8.092;2022-11-11T00:39:11;5.53;;;2.00;;
68858;SDS011;55864;49.238;8.092;2022-11-11T00:41:30;8.10;;;2.60;;
68858;SDS011;55864;49.238;8.092;2022-11-11T00:43:51;6.57;;;2.20;;
68858;SDS011;55864;49.238;8.092;2022-11-11T00:46:10;7.10;;;2.50;;
68858;SDS011;55864;49.238;8.092;2022-11-11T00:48:30;7.63;;;2.40;;
68858;SDS011;55864;49.238;8.092;2022-11-11T00:50:49;9.07;;;2.43;;
68858;SDS011;55864;49.238;8.092;2022-11-11T00:53:10;7.07;;;2.03;;
68858;SDS011;55864;49.238;8.092;2022-11-11T00:55:30;5.27;;;1.87;;
68858;SDS011;55864;49.238;8.092;2022-11-11T00:57:49;8.07;;;2.10;;
68858;SDS011;55864;49.238;8.092;2022-11-11T01:00:08;6.03;;;2.20;;
68858;SDS011;55864;49.238;8.092;2022-11-11T01:02:28;6.90;;;1.73;;
68858;SDS011;55864;49.238;8.092;2022-11-11T01:04:48;5.83;;;1.50;;
68858;SDS011;55864;49.238;8.092;2022-11-11T01:07:07;5.20;;;1.30;;
68858;SDS011;55864;49.238;8.092;2022-11-11T01:09:27;7.43;;;1.30;;
68858;SDS011;55864;49.238;8.092;2022-11-11T01:11:46;5.87;;;2.20;;
68858;SDS011;55864;49.238;8.092;2022-11-11T01:14:05;6.90;;;2.00;;
68858;SDS011;55864;49.238;8.092;2022-11-11T01:16:25;6.70;;;1.90;;
68858;SDS011;55864;49.238;8.092;2022-11-11T01:18:44;7.37;;;1.90;;
68858;SDS011;55864;49.238;8.092;2022-11-11T01:21:04;7.80;;;1.87;;
68858;SDS011;55864;49.238;8.092;2022-11-11T01:23:24;4.70;;;1.40;;
68858;SDS011;55864;49.238;8.092;2022-11-11T01:25:45;5.17;;;1.73;;
68858;SDS011;55864;49.238;8.092;2022-11-11T01:28:04;5.00;;;1.50;;
68858;SDS011;55864;49.238;8.092;2022-11-11T01:30:24;5.17;;;1.70;;
68858;SDS011;55864;49.238;8.092;2022-11-11T01:32:43;5.60;;;1.80;;
68858;SDS011;55864;49.238;8.092;2022-11-11T01:35:02;6.97;;;1.83;;
68858;SDS011;55864;49.238;8.092;2022-11-11T01:37:22;6.80;;;2.17;;
68858;SDS011;55864;49.238;8.092;2022-11-11T01:39:41;6.17;;;1.70;;
68858;SDS011;55864;49.238;8.092;2022-11-11T01:42:01;7.20;;;1.67;;
68858;SDS011;55864;49.238;8.092;2022-11-11T01:44:41;6.93;;;2.00;;
68858;SDS011;55864;49.238;8.092;2022-11-11T01:47:02;6.37;;;1.67;;
68858;SDS011;55864;49.238;8.092;2022-11-11T01:49:26;5.93;;;1.90;;
68858;SDS011;55864;49.238;8.092;2022-11-11T01:51:55;6.57;;;1.50;;
68858;SDS011;55864;49.238;8.092;2022-11-11T01:54:20;6.97;;;1.50;;
68858;SDS011;55864;49.238;8.092;2022-11-11T01:56:46;6.27;;;1.80;;
68858;SDS011;55864;49.238;8.092;2022-11-11T01:59:11;5.55;;;1.50;;
68858;SDS011;55864;49.238;8.092;2022-11-11T02:01:32;5.50;;;1.50;;
68858;SDS011;55864;49.238;8.092;2022-11-11T02:03:52;6.23;;;1.50;;
68858;SDS011;55864;49.238;8.092;2022-11-11T02:06:13;6.03;;;1.50;;
68858;SDS011;55864;49.238;8.092;2022-11-11T02:08:33;6.30;;;1.50;;
68858;SDS011;55864;49.238;8.092;2022-11-11T02:10:54;5.33;;;1.87;;
68858;SDS011;55864;49.238;8.092;2022-11-11T02:13:14;4.50;;;1.40;;
68858;SDS011;55864;49.238;8.092;2022-11-11T02:15:35;4.70;;;1.53;;
68858;SDS011;55864;49.238;8.092;2022-11-11T02:17:55;6.73;;;1.50;;
68858;SDS011;55864;49.238;8.092;2022-11-11T02:20:14;5.70;;;1.40;;
68858;SDS011;55864;49.238;8.092;2022-11-11T02:22:38;4.20;;;1.30;;
68858;SDS011;55864;49.238;8.092;2022-11-11T02:25:08;5.07;;;1.60;;
68858;SDS011;55864;49.238;8.092;2022-11-11T02:29:49;4.77;;;1.70;;
68858;SDS011;55864;49.238;8.092;2022-11-11T02:32:13;5.15;;;2.15;;
68858;SDS011;55864;49.238;8.092;2022-11-11T02:34:32;4.67;;;1.90;;
68858;SDS011;55864;49.238;8.092;2022-11-11T02:36:52;7.80;;;3.00;;
68858;SDS011;55864;49.238;8.092;2022-11-11T02:39:11;6.43;;;3.10;;
68858;SDS011;55864;49.238;8.092;2022-11-11T02:41:31;8.20;;;3.17;;
68858;SDS011;55864;49.238;8.092;2022-11-11T02:43:50;5.10;;;2.00;;
68858;SDS011;55864;49.238;8.092;2022-11-11T02:46:09;6.00;;;2.00;;
68858;SDS011;55864;49.238;8.092;2022-11-11T02:48:28;4.60;;;1.40;;
68858;SDS011;55864;49.238;8.092;2022-11-11T02:50:47;5.40;;;1.40;;
68858;SDS011;55864;49.238;8.092;2022-11-11T02:53:06;7.97;;;1.67;;
68858;SDS011;55864;49.238;8.092;2022-11-11T02:55:26;4.13;;;1.70;;
68858;SDS011;55864;49.238;8.092;2022-11-11T02:57:46;4.67;;;1.40;;
68858;SDS011;55864;49.238;8.092;2022-11-11T03:00:06;5.57;;;1.43;;
68858;SDS011;55864;49.238;8.092;2022-11-11T03:02:26;3.40;;;1.40;;
68858;SDS011;55864;49.238;8.092;2022-11-11T03:04:45;5.87;;;1.93;;
68858;SDS011;55864;49.238;8.092;2022-11-11T03:07:05;4.50;;;1.60;;
68858;SDS011;55864;49.238;8.092;2022-11-11T03:09:24;6.53;;;1.70;;
68858;SDS011;55864;49.238;8.092;2022-11-11T03:11:44;6.83;;;2.10;;
68858;SDS011;55864;49.238;8.092;2022-11-11T03:14:04;8.20;;;2.20;;
68858;SDS011;55864;49.238;8.092;2022-11-11T03:16:23;7.67;;;1.63;;
68858;SDS011;55864;49.238;8.092;2022-11-11T03:18:42;3.83;;;1.40;;
68858;SDS011;55864;49.238;8.092;2022-11-11T03:21:01;5.60;;;1.60;;
68858;SDS011;55864;49.238;8.092;2022-11-11T03:23:20;3.73;;;1.40;;
68858;SDS011;55864;49.238;8.092;2022-11-11T03:25:39;6.10;;;1.40;;
68858;SDS011;55864;49.238;8.092;2022-11-11T03:28:00;6.03;;;1.60;;
68858;SDS011;55864;49.238;8.092;2022-11-11T03:30:20;2.90;;;1.30;;
68858;SDS011;55864;49.238;8.092;2022-11-11T03:32:39;5.10;;;1.40;;
68858;SDS011;55864;49.238;8.092;2022-11-11T03:34:58;3.87;;;1.37;;
68858;SDS011;55864;49.238;8.092;2022-11-11T03:37:17;4.63;;;1.50;;
68858;SDS011;55864;49.238;8.092;2022-11-11T03:39:36;8.67;;;2.33;;
68858;SDS011;55864;49.238;8.092;2022-11-11T03:41:55;6.40;;;2.00;;
68858;SDS011;55864;49.238;8.092;2022-11-11T03:44:14;7.47;;;2.33;;
68858;SDS011;55864;49.238;8.092;2022-11-11T03:46:34;7.60;;;2.70;;
68858;SDS011;55864;49.238;8.092;2022-11-11T03:48:53;8.83;;;2.60;;
68858;SDS011;55864;49.238;8.092;2022-11-11T03:51:12;7.07;;;2.33;;
68858;SDS011;55864;49.238;8.092;2022-11-11T03:53:31;9.03;;;2.00;;
68858;SDS011;55864;49.238;8.092;2022-11-11T03:55:50;4.97;;;1.80;;
68858;SDS011;55864;49.238;8.092;2022-11-11T03:58:10;6.10;;;1.73;;
68858;SDS011;55864;49.238;8.092;2022-11-11T04:00:29;4.70;;;1.70;;
68858;SDS011;55864;49.238;8.092;2022-11-11T04:02:49;5.87;;;1.70;;
68858;SDS011;55864;49.238;8.092;2022-11-11T04:05:09;5.33;;;2.00;;
68858;SDS011;55864;49.238;8.092;2022-11-11T04:07:28;6.60;;;2.47;;
68858;SDS011;55864;49.238;8.092;2022-11-11T04:09:46;8.30;;;2.20;;
68858;SDS011;55864;49.238;8.092;2022-11-11T04:12:05;6.73;;;2.20;;
68858;SDS011;55864;49.238;8.092;2022-11-11T04:14:24;8.57;;;2.23;;
68858;SDS011;55864;49.238;8.092;2022-11-11T04:16:43;6.17;;;1.70;;
68858;SDS011;55864;49.238;8.092;2022-11-11T04:19:03;9.23;;;1.83;;
68858;SDS011;55864;49.238;8.092;2022-11-11T04:21:23;8.93;;;2.40;;
68858;SDS011;55864;49.238;8.092;2022-11-11T04:23:42;6.33;;;1.60;;
68858;SDS011;55864;49.238;8.092;2022-11-11T04:26:01;6.40;;;1.53;;
68858;SDS011;55864;49.238;8.092;2022-11-11T04:28:20;6.50;;;1.70;;
68858;SDS011;55864;49.238;8.092;2022-11-11T04:30:39;4.93;;;1.47;;
68858;SDS011;55864;49.238;8.092;2022-11-11T04:33:02;5.17;;;1.70;;
68858;SDS011;55864;49.238;8.092;2022-11-11T04:35:30;5.83;;;1.97;;
68858;SDS011;55864;49.238;8.092;2022-11-11T04:38:07;6.80;;;2.70;;
68858;SDS011;55864;49.238;8.092;2022-11-11T04:40:26;5.77;;;1.93;;
68858;SDS011;55864;49.238;8.092;2022-11-11T04:42:45;5.67;;;1.90;;
68858;SDS011;55864;49.238;8.092;2022-11-11T04:45:04;7.73;;;1.80;;
68858;SDS011;55864;49.238;8.092;2022-11-11T04:47:24;7.90;;;1.97;;
68858;SDS011;55864;49.238;8.092;2022-11-11T04:49:43;5.13;;;1.80;;
68858;SDS011;55864;49.238;8.092;2022-11-11T04:52:03;5.23;;;1.70;;
68858;SDS011;55864;49.238;8.092;2022-11-11T04:54:23;5.10;;;1.87;;
68858;SDS011;55864;49.238;8.092;2022-11-11T04:56:42;5.53;;;1.90;;
68858;SDS011;55864;49.238;8.092;2022-11-11T04:59:00;7.10;;;2.53;;
68858;SDS011;55864;49.238;8.092;2022-11-11T05:01:19;8.93;;;2.60;;
68858;SDS011;55864;49.238;8.092;2022-11-11T05:03:38;9.20;;;3.03;;
68858;SDS011;55864;49.238;8.092;2022-11-11T05:05:58;5.93;;;2.10;;
68858;SDS011;55864;49.238;8.092;2022-11-11T05:08:19;8.53;;;2.63;;
68858;SDS011;55864;49.238;8.092;2022-11-11T05:10:38;8.53;;;3.00;;
68858;SDS011;55864;49.238;8.092;2022-11-11T05:12:57;7.93;;;2.97;;
68858;SDS011;55864;49.238;8.092;2022-11-11T05:15:16;7.37;;;3.13;;
68858;SDS011;55864;49.238;8.092;2022-11-11T05:17:35;7.97;;;2.60;;
68858;SDS011;55864;49.238;8.092;2022-11-11T05:19:54;7.07;;;2.67;;
68858;SDS011;55864;49.238;8.092;2022-11-11T05:22:15;5.87;;;2.80;;
68858;SDS011;55864;49.238;8.092;2022-11-11T05:24:38;8.00;;;3.13;;
68858;SDS011;55864;49.238;8.092;2022-11-11T05:26:57;10.30;;;3.50;;
68858;SDS011;55864;49.238;8.092;2022-11-11T05:29:16;9.27;;;4.53;;
68858;SDS011;55864;49.238;8.092;2022-11-11T05:31:35;13.93;;;5.27;;
68858;SDS011;55864;49.238;8.092;2022-11-11T05:33:54;17.90;;;5.77;;
68858;SDS011;55864;49.238;8.092;2022-11-11T05:36:14;19.73;;;5.03;;
68858;SDS011;55864;49.238;8.092;2022-11-11T05:38:33;17.23;;;5.07;;
68858;SDS011;55864;49.238;8.092;2022-11-11T05:40:55;21.07;;;5.77;;
68858;SDS011;55864;49.238;8.092;2022-11-11T05:43:14;33.33;;;4.83;;
68858;SDS011;55864;49.238;8.092;2022-11-11T05:45:32;42.70;;;5.57;;
68858;SDS011;55864;49.238;8.092;2022-11-11T05:47:51;34.30;;;6.13;;
68858;SDS011;55864;49.238;8.092;2022-11-11T05:50:10;23.70;;;5.37;;
68858;SDS011;55864;49.238;8.092;2022-11-11T05:52:29;25.77;;;5.83;;
68858;SDS011;55864;49.238;8.092;2022-11-11T05:54:48;35.53;;;6.53;;
68858;SDS011;55864;49.238;8.092;2022-11-11T05:57:09;23.13;;;5.77;;
68858;SDS011;55864;49.238;8.092;2022-11-11T05:59:29;16.27;;;3.70;;
68858;SDS011;55864;49.238;8.092;2022-11-11T06:01:48;10.80;;;3.73;;
68858;SDS011;55864;49.238;8.092;2022-11-11T06:04:07;7.87;;;3.20;;
68858;SDS011;55864;49.238;8.092;2022-11-11T06:06:26;8.73;;;3.00;;
68858;SDS011;55864;49.238;8.092;2022-11-11T06:08:45;8.23;;;3.23;;
68858;SDS011;55864;49.238;8.092;2022-11-11T06:11:04;8.57;;;3.23;;
68858;SDS011;55864;49.238;8.092;2022-11-11T06:13:24;8.73;;;3.57;;
68858;SDS011;55864;49.238;8.092;2022-11-11T06:15:43;14.43;;;4.03;;
68858;SDS011;55864;49.238;8.092;2022-11-11T06:18:02;9.70;;;3.60;;
68858;SDS011;55864;49.238;8.092;2022-11-11T06:20:23;12.63;;;3.70;;
68858;SDS011;55864;49.238;8.092;2022-11-11T06:22:42;10.50;;;3.70;;
68858;SDS011;55864;49.238;8.092;2022-11-11T06:25:01;8.37;;;3.13;;
68858;SDS011;55864;49.238;8.092;2022-11-11T06:27:20;6.07;;;2.80;;
68858;SDS011;55864;49.238;8.092;2022-11-11T06:29:40;10.03;;;2.47;;
68858;SDS011;55864;49.238;8.092;2022-11-11T06:31:59;10.37;;;2.47;;
68858;SDS011;55864;49.238;8.092;2022-11-11T06:34:18;6.57;;;2.60;;
68858;SDS011;55864;49.238;8.092;2022-11-11T06:36:37;5.30;;;2.77;;
68858;SDS011;55864;49.238;8.092;2022-11-11T06:38:56;4.93;;;2.20;;
68858;SDS011;55864;49.238;8.092;2022-11-11T06:41:15;8.47;;;2.40;;
68858;SDS011;55864;49.238;8.092;2022-11-11T06:43:34;7.40;;;2.43;;
68858;SDS011;55864;49.238;8.092;2022-11-11T06:45:54;6.83;;;2.70;;
68858;SDS011;55864;49.238;8.092;2022-11-11T06:48:14;6.13;;;2.60;;
68858;SDS011;55864;49.238;8.092;2022-11-11T06:50:33;9.20;;;3.17;;
68858;SDS011;55864;49.238;8.092;2022-11-11T06:52:53;8.50;;;3.40;;
68858;SDS011;55864;49.238;8.092;2022-11-11T06:55:12;8.60;;;3.20;;
68858;SDS011;55864;49.238;8.092;2022-11-11T06:57:31;12.13;;;3.17;;
68858;SDS011;55864;49.238;8.092;2022-11-11T06:59:51;10.40;;;3.47;;
68858;SDS011;55864;49.238;8.092;2022-11-11T07:02:12;12.77;;;4.20;;
68858;SDS011;55864;49.238;8.092;2022-11-11T07:04:31;12.73;;;4.17;;
68858;SDS011;55864;49.238;8.092;2022-11-11T07:06:50;11.00;;;3.70;;
68858;SDS011;55864;49.238;8.092;2022-11-11T07:09:09;9.53;;;3.17;;
68858;SDS011;55864;49.238;8.092;2022-11-11T07:11:28;11.07;;;3.73;;
68858;SDS011;55864;49.238;8.092;2022-11-11T07:13:47;11.73;;;3.43;;
68858;SDS011;55864;49.238;8.092;2022-11-11T07:16:06;12.93;;;3.43;;
68858;SDS011;55864;49.238;8.092;2022-11-11T07:18:26;9.17;;;3.70;;
68858;SDS011;55864;49.238;8.092;2022-11-11T07:20:45;11.80;;;3.83;;
68858;SDS011;55864;49.238;8.092;2022-11-11T07:23:04;10.03;;;3.60;;
68858;SDS011;55864;49.238;8.092;2022-11-11T07:25:24;11.73;;;3.90;;
68858;SDS011;55864;49.238;8.092;2022-11-11T07:27:43;13.17;;;3.40;;
68858;SDS011;55864;49.238;8.092;2022-11-11T07:30:02;9.97;;;3.80;;
68858;SDS011;55864;49.238;8.092;2022-11-11T07:32:22;10.03;;;3.40;;
68858;SDS011;55864;49.238;8.092;2022-11-11T07:34:42;11.97;;;3.40;;
68858;SDS011;55864;49.238;8.092;2022-11-11T07:37:01;9.83;;;3.30;;
68858;SDS011;55864;49.238;8.092;2022-11-11T07:39:20;14.13;;;3.53;;
68858;SDS011;55864;49.238;8.092;2022-11-11T07:41:39;13.07;;;3.60;;
68858;SDS011;55864;49.238;8.092;2022-11-11T07:43:58;46.73;;;4.37;;
68858;SDS011;55864;49.238;8.092;2022-11-11T07:46:17;19.13;;;4.83;;
68858;SDS011;55864;49.238;8.092;2022-11-11T07:48:36;12.47;;;4.43;;
68858;SDS011;55864;49.238;8.092;2022-11-11T07:50:57;14.13;;;4.13;;
68858;SDS011;55864;49.238;8.092;2022-11-11T07:53:16;12.37;;;4.57;;
68858;SDS011;55864;49.238;8.092;2022-11-11T07:55:35;26.57;;;3.87;;
68858;SDS011;55864;49.238;8.092;2022-11-11T07:57:53;12.13;;;3.90;;
68858;SDS011;55864;49.238;8.092;2022-11-11T08:00:13;10.73;;;4.10;;
68858;SDS011;55864;49.238;8.092;2022-11-11T08:02:32;12.73;;;4.40;;
68858;SDS011;55864;49.238;8.092;2022-11-11T08:04:51;12.53;;;4.23;;
68858;SDS011;55864;49.238;8.092;2022-11-11T08:07:11;11.97;;;4.80;;
68858;SDS011;55864;49.238;8.092;2022-11-11T08:09:30;11.47;;;4.47;;
68858;SDS011;55864;49.238;8.092;2022-11-11T08:11:49;12.67;;;4.50;;
68858;SDS011;55864;49.238;8.092;2022-11-11T08:14:08;9.67;;;4.13;;
68858;SDS011;55864;49.238;8.092;2022-11-11T08:16:27;10.43;;;4.13;;
68858;SDS011;55864;49.238;8.092;2022-11-11T08:18:46;11.77;;;4.60;;
68858;SDS011;55864;49.238;8.092;2022-11-11T08:21:05;13.87;;;3.93;;
68858;SDS011;55864;49.238;8.092;2022-11-11T08:23:26;9.83;;;4.23;;
68858;SDS011;55864;49.238;8.092;2022-11-11T08:25:45;11.30;;;4.33;;
68858;SDS011;55864;49.238;8.092;2022-11-11T08:28:04;12.17;;;4.80;;
68858;SDS011;55864;49.238;8.092;2022-11-11T08:30:23;14.67;;;5.90;;
68858;SDS011;55864;49.238;8.092;2022-11-11T08:32:42;12.87;;;5.60;;
68858;SDS011;55864;49.238;8.092;2022-11-11T08:35:01;11.90;;;5.33;;
68858;SDS011;55864;49.238;8.092;2022-11-11T08:37:20;13.07;;;5.80;;
68858;SDS011;55864;49.238;8.092;2022-11-11T08:39:41;13.30;;;5.10;;
68858;SDS011;55864;49.238;8.092;2022-11-11T08:42:00;9.70;;;4.50;;
68858;SDS011;55864;49.238;8.092;2022-11-11T08:44:19;9.13;;;4.00;;
68858;SDS011;55864;49.238;8.092;2022-11-11T08:46:38;8.83;;;3.90;;
68858;SDS011;55864;49.238;8.092;2022-11-11T08:48:57;7.83;;;3.90;;
68858;SDS011;55864;49.238;8.092;2022-11-11T08:51:16;8.20;;;3.57;;
68858;SDS011;55864;49.238;8.092;2022-11-11T08:53:35;10.50;;;3.60;;
68858;SDS011;55864;49.238;8.092;2022-11-11T08:55:55;9.40;;;4.20;;
68858;SDS011;55864;49.238;8.092;2022-11-11T08:58:14;9.63;;;3.90;;
68858;SDS011;55864;49.238;8.092;2022-11-11T09:00:33;9.40;;;3.23;;
68858;SDS011;55864;49.238;8.092;2022-11-11T09:02:52;10.97;;;3.30;;
68858;SDS011;55864;49.238;8.092;2022-11-11T09:05:12;7.97;;;2.63;;
68858;SDS011;55864;49.238;8.092;2022-11-11T09:07:31;12.50;;;2.70;;
68858;SDS011;55864;49.238;8.092;2022-11-11T09:09:50;8.73;;;3.23;;
68858;SDS011;55864;49.238;8.092;2022-11-11T09:12:11;9.30;;;3.17;;
68858;SDS011;55864;49.238;8.092;2022-11-11T09:14:30;14.70;;;7.30;;
68858;SDS011;55864;49.238;8.092;2022-11-11T09:16:48;9.70;;;3.80;;
68858;SDS011;55864;49.238;8.092;2022-11-11T09:19:07;10.17;;;3.93;;
68858;SDS011;55864;49.238;8.092;2022-11-11T09:21:26;9.50;;;3.83;;
68858;SDS011;55864;49.238;8.092;2022-11-11T09:23:45;9.10;;;3.93;;
68858;SDS011;55864;49.238;8.092;2022-11-11T09:26:04;9.90;;;3.93;;
68858;SDS011;55864;49.238;8.092;2022-11-11T09:28:24;8.10;;;4.00;;
68858;SDS011;55864;49.238;8.092;2022-11-11T09:30:43;12.30;;;4.37;;
68858;SDS011;55864;49.238;8.092;2022-11-11T09:33:03;10.07;;;4.03;;
68858;SDS011;55864;49.238;8.092;2022-11-11T09:35:22;10.43;;;4.17;;
68858;SDS011;55864;49.238;8.092;2022-11-11T09:37:41;8.10;;;3.87;;
68858;SDS011;55864;49.238;8.092;2022-11-11T09:40:10;9.87;;;4.30;;
68858;SDS011;55864;49.238;8.092;2022-11-11T09:42:36;8.30;;;3.77;;
68858;SDS011;55864;49.238;8.092;2022-11-11T09:45:05;9.47;;;3.87;;
68858;SDS011;55864;49.238;8.092;2022-11-11T09:47:34;9.13;;;4.10;;
68858;SDS011;55864;49.238;8.092;2022-11-11T09:49:59;9.07;;;4.03;;
68858;SDS011;55864;49.238;8.092;2022-11-11T09:52:22;8.80;;;3.93;;
68858;SDS011;55864;49.238;8.092;2022-11-11T09:54:47;8.53;;;3.80;;
68858;SDS011;55864;49.238;8.092;2022-11-11T09:57:11;17.33;;;7.83;;
68858;SDS011;55864;49.238;8.092;2022-11-11T09:59:37;15.67;;;7.07;;
68858;SDS011;55864;49.238;8.092;2022-11-11T10:02:02;11.37;;;6.07;;
68858;SDS011;55864;49.238;8.092;2022-11-11T10:04:29;10.63;;;5.17;;
68858;SDS011;55864;49.238;8.092;2022-11-11T10:06:56;10.63;;;5.07;;
68858;SDS011;55864;49.238;8.092;2022-11-11T10:09:20;10.07;;;4.83;;
68858;SDS011;55864;49.238;8.092;2022-11-11T10:11:45;10.80;;;4.75;;
68858;SDS011;55864;49.238;8.092;2022-11-11T10:14:09;8.50;;;4.33;;
68858;SDS011;55864;49.238;8.092;2022-11-11T10:16:31;10.37;;;4.73;;
68858;SDS011;55864;49.238;8.092;2022-11-11T10:19:07;10.27;;;4.87;;
68858;SDS011;55864;49.238;8.092;2022-11-11T10:21:36;13.03;;;5.20;;
68858;SDS011;55864;49.238;8.092;2022-11-11T10:24:03;10.93;;;5.80;;
68858;SDS011;55864;49.238;8.092;2022-11-11T10:26:31;11.73;;;5.30;;
68858;SDS011;55864;49.238;8.092;2022-11-11T10:28:55;11.80;;;5.67;;
68858;SDS011;55864;49.238;8.092;2022-11-11T10:31:17;12.10;;;6.00;;
68858;SDS011;55864;49.238;8.092;2022-11-11T10:33:40;12.87;;;5.70;;
68858;SDS011;55864;49.238;8.092;2022-11-11T10:36:08;10.53;;;5.57;;
68858;SDS011;55864;49.238;8.092;2022-11-11T10:38:33;12.70;;;6.47;;
68858;SDS011;55864;49.238;8.092;2022-11-11T10:41:02;14.00;;;5.90;;
68858;SDS011;55864;49.238;8.092;2022-11-11T10:43:28;12.67;;;5.90;;
68858;SDS011;55864;49.238;8.092;2022-11-11T10:45:49;11.47;;;5.60;;
68858;SDS011;55864;49.238;8.092;2022-11-11T10:48:15;10.53;;;6.00;;
68858;SDS011;55864;49.238;8.092;2022-11-11T10:50:38;12.15;;;6.25;;
68858;SDS011;55864;49.238;8.092;2022-11-11T10:53:06;11.88;;;6.60;;
68858;SDS011;55864;49.238;8.092;2022-11-11T10:55:31;12.67;;;7.40;;
68858;SDS011;55864;49.238;8.092;2022-11-11T10:57:59;13.90;;;6.60;;
68858;SDS011;55864;49.238;8.092;2022-11-11T11:00:26;13.37;;;7.10;;
68858;SDS011;55864;49.238;8.092;2022-11-11T11:02:47;11.60;;;6.10;;
68858;SDS011;55864;49.238;8.092;2022-11-11T11:05:13;17.23;;;6.63;;
68858;SDS011;55864;49.238;8.092;2022-11-11T11:07:39;12.80;;;6.30;;
68858;SDS011;55864;49.238;8.092;2022-11-11T11:10:04;13.27;;;6.82;;
68858;SDS011;55864;49.238;8.092;2022-11-11T11:12:33;14.07;;;7.57;;
68858;SDS011;55864;49.238;8.092;2022-11-11T11:14:58;13.73;;;6.73;;
68858;SDS011;55864;49.238;8.092;2022-11-11T11:17:22;14.90;;;7.20;;
68858;SDS011;55864;49.238;8.092;2022-11-11T11:19:45;13.27;;;6.97;;
68858;SDS011;55864;49.238;8.092;2022-11-11T11:22:30;12.97;;;6.40;;
68858;SDS011;55864;49.238;8.092;2022-11-11T11:25:11;11.80;;;6.40;;
68858;SDS011;55864;49.238;8.092;2022-11-11T11:27:31;14.40;;;7.17;;
68858;SDS011;55864;49.238;8.092;2022-11-11T11:29:50;23.07;;;7.20;;
68858;SDS011;55864;49.238;8.092;2022-11-11T11:32:13;16.00;;;7.77;;
68858;SDS011;55864;49.238;8.092;2022-11-11T11:34:44;15.80;;;7.93;;
68858;SDS011;55864;49.238;8.092;2022-11-11T11:37:07;20.38;;;10.80;;
68858;SDS011;55864;49.238;8.092;2022-11-11T11:39:33;17.37;;;8.30;;
68858;SDS011;55864;49.238;8.092;2022-11-11T11:41:54;14.33;;;7.63;;
68858;SDS011;55864;49.238;8.092;2022-11-11T11:44:23;18.52;;;8.82;;
68858;SDS011;55864;49.238;8.092;2022-11-11T11:46:43;18.93;;;8.27;;
68858;SDS011;55864;49.238;8.092;2022-11-11T11:49:08;19.60;;;11.70;;
68858;SDS011;55864;49.238;8.092;2022-11-11T11:51:37;20.27;;;11.77;;
68858;SDS011;55864;49.238;8.092;2022-11-11T11:54:06;18.13;;;9.20;;
68858;SDS011;55864;49.238;8.092;2022-11-11T11:56:36;23.97;;;9.60;;
68858;SDS011;55864;49.238;8.092;2022-11-11T11:59:00;17.63;;;9.43;;
68858;SDS011;55864;49.238;8.092;2022-11-11T12:01:26;17.90;;;9.53;;
68858;SDS011;55864;49.238;8.092;2022-11-11T12:04:02;22.27;;;11.70;;
68858;SDS011;55864;49.238;8.092;2022-11-11T12:06:46;30.73;;;21.90;;
68858;SDS011;55864;49.238;8.092;2022-11-11T12:09:19;18.53;;;9.90;;
68858;SDS011;55864;49.238;8.092;2022-11-11T12:11:49;17.73;;;9.57;;
68858;SDS011;55864;49.238;8.092;2022-11-11T12:14:26;20.53;;;10.50;;
68858;SDS011;55864;49.238;8.092;2022-11-11T12:16:56;17.50;;;10.60;;
68858;SDS011;55864;49.238;8.092;2022-11-11T12:22:05;14.82;;;6.75;;
68858;SDS011;55864;49.238;8.092;2022-11-11T12:24:42;12.90;;;6.83;;
68858;SDS011;55864;49.238;8.092;2022-11-11T12:27:13;18.83;;;8.57;;
68858;SDS011;55864;49.238;8.092;2022-11-11T12:29:43;18.13;;;8.50;;
68858;SDS011;55864;49.238;8.092;2022-11-11T12:32:23;18.47;;;10.37;;
68858;SDS011;55864;49.238;8.092;2022-11-11T12:34:57;15.97;;;8.67;;
68858;SDS011;55864;49.238;8.092;2022-11-11T12:37:32;12.50;;;6.80;;
68858;SDS011;55864;49.238;8.092;2022-11-11T12:40:06;15.87;;;8.43;;
68858;SDS011;55864;49.238;8.092;2022-11-11T12:42:39;15.85;;;6.97;;
68858;SDS011;55864;49.238;8.092;2022-11-11T12:45:14;15.07;;;7.27;;
68858;SDS011;55864;49.238;8.092;2022-11-11T12:47:36;14.03;;;6.87;;
68858;SDS011;55864;49.238;8.092;2022-11-11T12:50:10;14.43;;;7.00;;
68858;SDS011;55864;49.238;8.092;2022-11-11T12:52:37;14.20;;;7.00;;
68858;SDS011;55864;49.238;8.092;2022-11-11T12:55:15;16.80;;;10.00;;
68858;SDS011;55864;49.238;8.092;2022-11-11T12:57:41;13.83;;;7.20;;
68858;SDS011;55864;49.238;8.092;2022-11-11T13:00:15;13.13;;;6.97;;
68858;SDS011;55864;49.238;8.092;2022-11-11T13:05:39;15.70;;;7.23;;
68858;SDS011;55864;49.238;8.092;2022-11-11T13:11:01;48.30;;;37.13;;
68858;SDS011;55864;49.238;8.092;2022-11-11T13:13:34;19.27;;;11.00;;
68858;SDS011;55864;49.238;8.092;2022-11-11T13:16:06;14.77;;;7.53;;
68858;SDS011;55864;49.238;8.092;2022-11-11T13:18:27;14.77;;;7.63;;
68858;SDS011;55864;49.238;8.092;2022-11-11T13:21:02;15.43;;;7.80;;
68858;SDS011;55864;49.238;8.092;2022-11-11T13:23:24;14.97;;;7.73;;
68858;SDS011;55864;49.238;8.092;2022-11-11T13:25:44;14.17;;;7.67;;
68858;SDS011;55864;49.238;8.092;2022-11-11T13:28:06;14.03;;;8.00;;
68858;SDS011;55864;49.238;8.092;2022-11-11T13:30:38;14.87;;;7.97;;
68858;SDS011;55864;49.238;8.092;2022-11-11T13:33:06;15.87;;;8.57;;
68858;SDS011;55864;49.238;8.092;2022-11-11T13:35:29;15.85;;;7.90;;
68858;SDS011;55864;49.238;8.092;2022-11-11T13:37:51;18.50;;;8.47;;
68858;SDS011;55864;49.238;8.092;2022-11-11T13:40:18;13.90;;;8.33;;
68858;SDS011;55864;49.238;8.092;2022-11-11T13:42:49;15.45;;;8.32;;
68858;SDS011;55864;49.238;8.092;2022-11-11T13:45:23;16.60;;;8.52;;
68858;SDS011;55864;49.238;8.092;2022-11-11T13:47:45;15.87;;;8.93;;
68858;SDS011;55864;49.238;8.092;2022-11-11T13:50:08;16.53;;;8.87;;
68858;SDS011;55864;49.238;8.092;2022-11-11T13:52:32;16.77;;;8.63;;
68858;SDS011;55864;49.238;8.092;2022-11-11T13:54:55;15.43;;;8.17;;
68858;SDS011;55864;49.238;8.092;2022-11-11T13:59:39;16.23;;;8.53;;
68858;SDS011;55864;49.238;8.092;2022-11-11T14:07:46;17.73;;;9.40;;
68858;SDS011;55864;49.238;8.092;2022-11-11T14:10:06;17.67;;;8.50;;
68858;SDS011;55864;49.238;8.092;2022-11-11T14:12:33;17.53;;;9.50;;
68858;SDS011;55864;49.238;8.092;2022-11-11T14:14:54;16.67;;;8.80;;
68858;SDS011;55864;49.238;8.092;2022-11-11T14:17:14;17.60;;;9.80;;
68858;SDS011;55864;49.238;8.092;2022-11-11T14:19:35;18.60;;;9.60;;
68858;SDS011;55864;49.238;8.092;2022-11-11T14:21:56;16.47;;;9.20;;
68858;SDS011;55864;49.238;8.092;2022-11-11T14:24:22;17.33;;;8.67;;
68858;SDS011;55864;49.238;8.092;2022-11-11T14:26:44;19.47;;;10.03;;
68858;SDS011;55864;49.238;8.092;2022-11-11T14:29:16;17.40;;;9.20;;